sensor_id;sensor_type;location;lat;lon;timestamp;temperature;humidity
2889;DHT22;1453;42.708;23.282;2023-03-18T00:00:43;1.70;99.90
2889;DHT22;1453;42.708;23.282;2023-03-18T00:03:10;1.60;99.90
2889;DHT22;1453;42.708;23.282;2023-03-18T00:05:36;1.60;99.90
2889;DHT22;1453;42.708;23.282;2023-03-18T00:08:04;1.60;99.90
2889;DHT22;1453;42.708;23.282;2023-03-18T00:10:31;1.50;99.90
2889;DHT22;1453;42.708;23.282;2023-03-18T00:12:57;1.50;99.90
2889;DHT22;1453;42.708;23.282;2023-03-18T00:15:24;1.40;99.90
2889;DHT22;1453;42.708;23.282;2023-03-18T00:17:49;1.40;99.90
2889;DHT22;1453;42.708;23.282;2023-03-18T00:20:17;1.40;99.90
2889;DHT22;1453;42.708;23.282;2023-03-18T00:22:53;1.40;99.90
2889;DHT22;1453;42.708;23.282;2023-03-18T00:25:22;1.40;99.90
2889;DHT22;1453;42.708;23.282;2023-03-18T00:27:48;1.40;99.90
2889;DHT22;1453;42.708;23.282;2023-03-18T00:30:14;1.40;99.90
2889;DHT22;1453;42.708;23.282;2023-03-18T00:32:40;1.40;99.90
2889;DHT22;1453;42.708;23.282;2023-03-18T00:35:06;1.30;99.90
2889;DHT22;1453;42.708;23.282;2023-03-18T00:37:32;1.40;99.90
2889;DHT22;1453;42.708;23.282;2023-03-18T00:40:11;1.40;99.90
2889;DHT22;1453;42.708;23.282;2023-03-18T00:42:42;1.40;99.90
2889;DHT22;1453;42.708;23.282;2023-03-18T00:45:14;1.40;99.90
2889;DHT22;1453;42.708;23.282;2023-03-18T00:47:44;1.30;99.90
2889;DHT22;1453;42.708;23.282;2023-03-18T00:50:12;1.40;99.90
2889;DHT22;1453;42.708;23.282;2023-03-18T00:52:39;1.30;99.90
2889;DHT22;1453;42.708;23.282;2023-03-18T00:55:05;1.30;99.90
2889;DHT22;1453;42.708;23.282;2023-03-18T00:57:31;1.30;99.90
2889;DHT22;1453;42.708;23.282;2023-03-18T00:59:57;1.30;99.90
2889;DHT22;1453;42.708;23.282;2023-03-18T01:02:26;1.30;99.90
2889;DHT22;1453;42.708;23.282;2023-03-18T01:04:54;1.30;99.90
2889;DHT22;1453;42.708;23.282;2023-03-18T01:07:21;1.20;99.90
2889;DHT22;1453;42.708;23.282;2023-03-18T01:09:48;1.10;99.90
2889;DHT22;1453;42.708;23.282;2023-03-18T01:12:14;1.10;99.90
2889;DHT22;1453;42.708;23.282;2023-03-18T01:14:40;1.20;99.90
2889;DHT22;1453;42.708;23.282;2023-03-18T01:17:07;1.20;99.90
2889;DHT22;1453;42.708;23.282;2023-03-18T01:19:34;1.10;99.90
2889;DHT22;1453;42.708;23.282;2023-03-18T01:22:00;1.10;99.90
2889;DHT22;1453;42.708;23.282;2023-03-18T01:24:27;1.20;99.90
2889;DHT22;1453;42.708;23.282;2023-03-18T01:26:53;1.40;99.90
2889;DHT22;1453;42.708;23.282;2023-03-18T01:29:19;1.20;99.90
2889;DHT22;1453;42.708;23.282;2023-03-18T01:31:48;1.20;99.90
2889;DHT22;1453;42.708;23.282;2023-03-18T01:34:15;1.20;99.90
2889;DHT22;1453;42.708;23.282;2023-03-18T01:36:42;1.30;99.90
2889;DHT22;1453;42.708;23.282;2023-03-18T01:39:08;1.30;99.90
2889;DHT22;1453;42.708;23.282;2023-03-18T01:41:35;1.30;99.90
2889;DHT22;1453;42.708;23.282;2023-03-18T01:44:05;1.20;99.90
2889;DHT22;1453;42.708;23.282;2023-03-18T01:46:46;1.30;99.90
2889;DHT22;1453;42.708;23.282;2023-03-18T01:49:21;1.10;99.90
2889;DHT22;1453;42.708;23.282;2023-03-18T01:54:33;0.90;99.90
2889;DHT22;1453;42.708;23.282;2023-03-18T01:57:01;0.90;99.90
2889;DHT22;1453;42.708;23.282;2023-03-18T01:59:29;0.80;99.90
2889;DHT22;1453;42.708;23.282;2023-03-18T02:02:07;0.80;99.90
2889;DHT22;1453;42.708;23.282;2023-03-18T02:04:39;0.70;99.90
2889;DHT22;1453;42.708;23.282;2023-03-18T02:07:14;0.80;99.90
2889;DHT22;1453;42.708;23.282;2023-03-18T02:09:49;0.60;99.90
2889;DHT22;1453;42.708;23.282;2023-03-18T02:12:23;0.60;99.90
2889;DHT22;1453;42.708;23.282;2023-03-18T02:14:53;0.60;99.90
2889;DHT22;1453;42.708;23.282;2023-03-18T02:17:22;0.60;99.90
2889;DHT22;1453;42.708;23.282;2023-03-18T02:22:48;0.50;99.90
2889;DHT22;1453;42.708;23.282;2023-03-18T02:28:23;0.50;99.90
2889;DHT22;1453;42.708;23.282;2023-03-18T02:30:56;0.50;99.90
2889;DHT22;1453;42.708;23.282;2023-03-18T02:33:28;0.70;99.90
2889;DHT22;1453;42.708;23.282;2023-03-18T02:36:06;0.50;99.90
2889;DHT22;1453;42.708;23.282;2023-03-18T02:38:41;0.30;99.90
2889;DHT22;1453;42.708;23.282;2023-03-18T02:41:20;0.30;99.90
2889;DHT22;1453;42.708;23.282;2023-03-18T02:43:52;0.20;99.90
2889;DHT22;1453;42.708;23.282;2023-03-18T02:49:06;0.10;99.90
2889;DHT22;1453;42.708;23.282;2023-03-18T02:51:34;0.10;99.90
2889;DHT22;1453;42.708;23.282;2023-03-18T02:54:04;0.00;99.90
2889;DHT22;1453;42.708;23.282;2023-03-18T02:56:36;-0.10;99.90
2889;DHT22;1453;42.708;23.282;2023-03-18T02:59:03;-0.30;99.90
2889;DHT22;1453;42.708;23.282;2023-03-18T03:01:30;-0.20;99.90
2889;DHT22;1453;42.708;23.282;2023-03-18T03:03:58;-0.20;99.90
2889;DHT22;1453;42.708;23.282;2023-03-18T03:06:24;-0.10;99.90
2889;DHT22;1453;42.708;23.282;2023-03-18T03:08:51;-0.20;99.90
2889;DHT22;1453;42.708;23.282;2023-03-18T03:11:18;-0.10;99.90
2889;DHT22;1453;42.708;23.282;2023-03-18T03:13:45;-0.20;99.90
2889;DHT22;1453;42.708;23.282;2023-03-18T03:16:15;-0.30;99.90
2889;DHT22;1453;42.708;23.282;2023-03-18T03:18:42;-0.30;99.90
2889;DHT22;1453;42.708;23.282;2023-03-18T03:21:09;-0.40;99.90
2889;DHT22;1453;42.708;23.282;2023-03-18T03:23:36;-0.30;99.90
2889;DHT22;1453;42.708;23.282;2023-03-18T03:26:03;-0.40;99.90
2889;DHT22;1453;42.708;23.282;2023-03-18T03:28:29;-0.40;99.90
2889;DHT22;1453;42.708;23.282;2023-03-18T03:30:57;-0.40;99.90
2889;DHT22;1453;42.708;23.282;2023-03-18T03:33:24;-0.30;99.90
2889;DHT22;1453;42.708;23.282;2023-03-18T03:35:51;-0.40;99.90
2889;DHT22;1453;42.708;23.282;2023-03-18T03:38:17;-0.30;99.90
2889;DHT22;1453;42.708;23.282;2023-03-18T03:40:44;-0.40;99.90
2889;DHT22;1453;42.708;23.282;2023-03-18T03:43:11;-0.50;99.90
2889;DHT22;1453;42.708;23.282;2023-03-18T03:45:39;-0.40;99.90
2889;DHT22;1453;42.708;23.282;2023-03-18T03:48:05;-0.50;99.90
2889;DHT22;1453;42.708;23.282;2023-03-18T03:50:31;-0.50;99.90
2889;DHT22;1453;42.708;23.282;2023-03-18T03:52:57;-0.50;99.90
2889;DHT22;1453;42.708;23.282;2023-03-18T03:55:24;-0.60;99.90
2889;DHT22;1453;42.708;23.282;2023-03-18T03:57:50;-0.60;99.90
2889;DHT22;1453;42.708;23.282;2023-03-18T04:00:19;-0.60;99.90
2889;DHT22;1453;42.708;23.282;2023-03-18T04:02:47;-0.50;99.90
2889;DHT22;1453;42.708;23.282;2023-03-18T04:05:16;-0.50;99.90
2889;DHT22;1453;42.708;23.282;2023-03-18T04:07:44;-0.50;99.90
2889;DHT22;1453;42.708;23.282;2023-03-18T04:10:12;-0.50;99.90
2889;DHT22;1453;42.708;23.282;2023-03-18T04:12:41;-0.50;99.90
2889;DHT22;1453;42.708;23.282;2023-03-18T04:15:07;-0.50;99.90
2889;DHT22;1453;42.708;23.282;2023-03-18T04:17:34;-0.50;99.90
2889;DHT22;1453;42.708;23.282;2023-03-18T04:20:01;-0.40;99.90
2889;DHT22;1453;42.708;23.282;2023-03-18T04:22:30;-0.50;99.90
2889;DHT22;1453;42.708;23.282;2023-03-18T04:24:56;-0.60;99.90
2889;DHT22;1453;42.708;23.282;2023-03-18T04:27:23;-0.40;99.90
2889;DHT22;1453;42.708;23.282;2023-03-18T04:29:49;-0.50;99.90
2889;DHT22;1453;42.708;23.282;2023-03-18T04:32:15;-0.40;99.90
2889;DHT22;1453;42.708;23.282;2023-03-18T04:34:41;-0.40;99.90
2889;DHT22;1453;42.708;23.282;2023-03-18T04:37:07;-0.30;99.90
2889;DHT22;1453;42.708;23.282;2023-03-18T04:39:34;-0.40;99.90
2889;DHT22;1453;42.708;23.282;2023-03-18T04:42:00;-0.50;99.90
2889;DHT22;1453;42.708;23.282;2023-03-18T04:44:26;-0.40;99.90
2889;DHT22;1453;42.708;23.282;2023-03-18T04:46:52;-0.50;99.90
2889;DHT22;1453;42.708;23.282;2023-03-18T04:49:19;-0.60;99.90
2889;DHT22;1453;42.708;23.282;2023-03-18T04:51:45;-0.60;99.90
2889;DHT22;1453;42.708;23.282;2023-03-18T04:54:12;-0.50;99.90
2889;DHT22;1453;42.708;23.282;2023-03-18T04:56:38;-0.50;99.90
2889;DHT22;1453;42.708;23.282;2023-03-18T04:59:04;-0.50;99.90
2889;DHT22;1453;42.708;23.282;2023-03-18T05:01:30;-0.40;99.90
2889;DHT22;1453;42.708;23.282;2023-03-18T05:03:56;-0.20;99.90
2889;DHT22;1453;42.708;23.282;2023-03-18T05:06:28;-0.10;99.90
2889;DHT22;1453;42.708;23.282;2023-03-18T05:08:56;-0.10;99.90
2889;DHT22;1453;42.708;23.282;2023-03-18T05:11:23;-0.10;99.90
2889;DHT22;1453;42.708;23.282;2023-03-18T05:13:49;-0.10;99.90
2889;DHT22;1453;42.708;23.282;2023-03-18T05:16:16;-0.10;99.90
2889;DHT22;1453;42.708;23.282;2023-03-18T05:18:42;-0.10;99.90
2889;DHT22;1453;42.708;23.282;2023-03-18T05:21:09;-0.10;99.90
2889;DHT22;1453;42.708;23.282;2023-03-18T05:23:36;0.00;99.90
2889;DHT22;1453;42.708;23.282;2023-03-18T05:26:03;0.00;99.90
2889;DHT22;1453;42.708;23.282;2023-03-18T05:28:31;0.10;99.90
2889;DHT22;1453;42.708;23.282;2023-03-18T05:30:58;0.20;99.90
2889;DHT22;1453;42.708;23.282;2023-03-18T05:33:24;0.20;99.90
2889;DHT22;1453;42.708;23.282;2023-03-18T05:35:50;0.30;99.90
2889;DHT22;1453;42.708;23.282;2023-03-18T05:38:17;0.30;99.90
2889;DHT22;1453;42.708;23.282;2023-03-18T05:40:43;0.30;99.90
2889;DHT22;1453;42.708;23.282;2023-03-18T05:43:09;0.20;99.90
2889;DHT22;1453;42.708;23.282;2023-03-18T05:45:36;0.30;99.90
2889;DHT22;1453;42.708;23.282;2023-03-18T05:48:03;0.40;99.90
2889;DHT22;1453;42.708;23.282;2023-03-18T05:50:31;0.10;99.90
2889;DHT22;1453;42.708;23.282;2023-03-18T05:53:03;0.00;99.90
2889;DHT22;1453;42.708;23.282;2023-03-18T05:55:30;0.00;99.90
2889;DHT22;1453;42.708;23.282;2023-03-18T05:57:56;0.00;99.90
2889;DHT22;1453;42.708;23.282;2023-03-18T06:00:23;0.10;99.90
2889;DHT22;1453;42.708;23.282;2023-03-18T06:02:50;0.00;99.90
2889;DHT22;1453;42.708;23.282;2023-03-18T06:05:20;-0.10;99.90
2889;DHT22;1453;42.708;23.282;2023-03-18T06:07:46;-0.20;99.90
2889;DHT22;1453;42.708;23.282;2023-03-18T06:10:13;-0.10;99.90
2889;DHT22;1453;42.708;23.282;2023-03-18T06:12:40;0.10;99.90
2889;DHT22;1453;42.708;23.282;2023-03-18T06:15:07;-0.10;99.90
2889;DHT22;1453;42.708;23.282;2023-03-18T06:17:35;-0.10;99.90
2889;DHT22;1453;42.708;23.282;2023-03-18T06:20:01;0.00;99.90
2889;DHT22;1453;42.708;23.282;2023-03-18T06:22:28;0.20;99.90
2889;DHT22;1453;42.708;23.282;2023-03-18T06:24:56;0.20;99.90
2889;DHT22;1453;42.708;23.282;2023-03-18T06:27:22;0.00;99.90
2889;DHT22;1453;42.708;23.282;2023-03-18T06:29:48;0.00;99.90
2889;DHT22;1453;42.708;23.282;2023-03-18T06:32:13;0.30;99.90
2889;DHT22;1453;42.708;23.282;2023-03-18T06:34:39;0.60;99.90
2889;DHT22;1453;42.708;23.282;2023-03-18T06:37:06;0.80;99.90
2889;DHT22;1453;42.708;23.282;2023-03-18T06:39:32;0.80;99.90
2889;DHT22;1453;42.708;23.282;2023-03-18T06:41:59;1.20;99.90
2889;DHT22;1453;42.708;23.282;2023-03-18T06:44:25;1.70;99.90
2889;DHT22;1453;42.708;23.282;2023-03-18T06:46:51;2.20;99.90
2889;DHT22;1453;42.708;23.282;2023-03-18T06:49:18;3.20;99.90
2889;DHT22;1453;42.708;23.282;2023-03-18T06:51:44;3.80;99.90
2889;DHT22;1453;42.708;23.282;2023-03-18T06:54:10;4.20;99.90
2889;DHT22;1453;42.708;23.282;2023-03-18T06:56:36;5.20;99.90
2889;DHT22;1453;42.708;23.282;2023-03-18T06:59:04;5.60;99.90
2889;DHT22;1453;42.708;23.282;2023-03-18T07:01:30;6.40;99.90
2889;DHT22;1453;42.708;23.282;2023-03-18T07:03:58;7.00;99.90
2889;DHT22;1453;42.708;23.282;2023-03-18T07:06:28;7.30;99.90
2889;DHT22;1453;42.708;23.282;2023-03-18T07:08:56;7.30;99.90
2889;DHT22;1453;42.708;23.282;2023-03-18T07:11:23;7.50;99.90
2889;DHT22;1453;42.708;23.282;2023-03-18T07:13:50;7.00;99.90
2889;DHT22;1453;42.708;23.282;2023-03-18T07:16:17;7.90;99.90
2889;DHT22;1453;42.708;23.282;2023-03-18T07:18:43;8.30;99.30
2889;DHT22;1453;42.708;23.282;2023-03-18T07:21:09;8.20;97.00
2889;DHT22;1453;42.708;23.282;2023-03-18T07:23:39;8.00;99.60
2889;DHT22;1453;42.708;23.282;2023-03-18T07:26:05;8.80;98.80
2889;DHT22;1453;42.708;23.282;2023-03-18T07:28:31;9.40;94.40
2889;DHT22;1453;42.708;23.282;2023-03-18T07:30:57;8.10;92.60
2889;DHT22;1453;42.708;23.282;2023-03-18T07:33:23;8.50;99.10
2889;DHT22;1453;42.708;23.282;2023-03-18T07:35:48;8.30;99.90
2889;DHT22;1453;42.708;23.282;2023-03-18T07:38:14;9.00;95.80
2889;DHT22;1453;42.708;23.282;2023-03-18T07:40:42;8.80;97.90
2889;DHT22;1453;42.708;23.282;2023-03-18T07:43:08;9.70;93.90
2889;DHT22;1453;42.708;23.282;2023-03-18T07:45:34;10.00;92.10
2889;DHT22;1453;42.708;23.282;2023-03-18T07:47:59;10.40;90.20
2889;DHT22;1453;42.708;23.282;2023-03-18T07:50:25;9.50;91.70
2889;DHT22;1453;42.708;23.282;2023-03-18T07:52:52;9.60;91.90
2889;DHT22;1453;42.708;23.282;2023-03-18T07:55:18;10.10;92.20
2889;DHT22;1453;42.708;23.282;2023-03-18T07:57:44;11.30;90.00
2889;DHT22;1453;42.708;23.282;2023-03-18T08:00:11;11.90;86.20
2889;DHT22;1453;42.708;23.282;2023-03-18T08:02:38;12.30;80.20
2889;DHT22;1453;42.708;23.282;2023-03-18T08:05:05;11.70;77.10
2889;DHT22;1453;42.708;23.282;2023-03-18T08:07:34;11.00;79.40
2889;DHT22;1453;42.708;23.282;2023-03-18T08:10:01;10.70;80.80
2889;DHT22;1453;42.708;23.282;2023-03-18T08:12:27;10.70;81.60
2889;DHT22;1453;42.708;23.282;2023-03-18T08:14:53;12.10;81.50
2889;DHT22;1453;42.708;23.282;2023-03-18T08:17:19;13.20;77.90
2889;DHT22;1453;42.708;23.282;2023-03-18T08:19:45;13.60;75.50
2889;DHT22;1453;42.708;23.282;2023-03-18T08:22:13;13.40;71.80
2889;DHT22;1453;42.708;23.282;2023-03-18T08:24:40;12.40;76.80
2889;DHT22;1453;42.708;23.282;2023-03-18T08:27:06;13.30;74.80
2889;DHT22;1453;42.708;23.282;2023-03-18T08:29:33;13.30;73.80
2889;DHT22;1453;42.708;23.282;2023-03-18T08:31:59;12.90;69.90
2889;DHT22;1453;42.708;23.282;2023-03-18T08:34:26;13.20;70.60
2889;DHT22;1453;42.708;23.282;2023-03-18T08:36:52;12.60;70.70
2889;DHT22;1453;42.708;23.282;2023-03-18T08:39:18;13.60;71.10
2889;DHT22;1453;42.708;23.282;2023-03-18T08:41:44;14.20;67.30
2889;DHT22;1453;42.708;23.282;2023-03-18T08:44:10;13.70;68.00
2889;DHT22;1453;42.708;23.282;2023-03-18T08:46:37;13.10;68.10
2889;DHT22;1453;42.708;23.282;2023-03-18T08:49:04;13.80;69.10
2889;DHT22;1453;42.708;23.282;2023-03-18T08:51:30;14.50;68.70
2889;DHT22;1453;42.708;23.282;2023-03-18T08:53:57;13.40;64.50
2889;DHT22;1453;42.708;23.282;2023-03-18T08:56:24;12.50;65.10
2889;DHT22;1453;42.708;23.282;2023-03-18T08:58:49;14.10;69.10
2889;DHT22;1453;42.708;23.282;2023-03-18T09:01:16;15.70;66.90
2889;DHT22;1453;42.708;23.282;2023-03-18T09:03:44;16.30;63.20
2889;DHT22;1453;42.708;23.282;2023-03-18T09:06:11;15.20;62.00
2889;DHT22;1453;42.708;23.282;2023-03-18T09:08:37;14.60;60.80
2889;DHT22;1453;42.708;23.282;2023-03-18T09:11:04;14.80;63.50
2889;DHT22;1453;42.708;23.282;2023-03-18T09:13:32;15.30;62.20
2889;DHT22;1453;42.708;23.282;2023-03-18T09:15:58;14.40;60.60
2889;DHT22;1453;42.708;23.282;2023-03-18T09:18:24;14.60;60.80
2889;DHT22;1453;42.708;23.282;2023-03-18T09:20:50;15.30;60.70
2889;DHT22;1453;42.708;23.282;2023-03-18T09:23:17;16.30;59.80
2889;DHT22;1453;42.708;23.282;2023-03-18T09:25:46;16.00;56.60
2889;DHT22;1453;42.708;23.282;2023-03-18T09:28:12;16.40;55.70
2889;DHT22;1453;42.708;23.282;2023-03-18T09:30:39;14.60;54.90
2889;DHT22;1453;42.708;23.282;2023-03-18T09:33:06;15.80;56.00
2889;DHT22;1453;42.708;23.282;2023-03-18T09:35:34;16.30;54.20
2889;DHT22;1453;42.708;23.282;2023-03-18T09:38:00;16.90;52.20
2889;DHT22;1453;42.708;23.282;2023-03-18T09:40:27;15.80;51.20
2889;DHT22;1453;42.708;23.282;2023-03-18T09:46:05;15.90;53.00
2889;DHT22;1453;42.708;23.282;2023-03-18T09:57:39;14.10;53.50
2889;DHT22;1453;42.708;23.282;2023-03-18T10:00:27;15.50;53.70
2889;DHT22;1453;42.708;23.282;2023-03-18T10:03:14;16.50;53.90
2889;DHT22;1453;42.708;23.282;2023-03-18T10:05:57;17.20;52.10
2889;DHT22;1453;42.708;23.282;2023-03-18T10:11:45;16.10;49.80
2889;DHT22;1453;42.708;23.282;2023-03-18T10:17:20;16.90;52.70
2889;DHT22;1453;42.708;23.282;2023-03-18T10:19:53;17.80;48.40
2889;DHT22;1453;42.708;23.282;2023-03-18T10:22:38;18.20;48.40
2889;DHT22;1453;42.708;23.282;2023-03-18T10:30:49;18.30;47.80
2889;DHT22;1453;42.708;23.282;2023-03-18T10:33:40;17.50;45.80
2889;DHT22;1453;42.708;23.282;2023-03-18T10:37:05;16.50;46.30
2889;DHT22;1453;42.708;23.282;2023-03-18T10:39:52;16.60;45.90
2889;DHT22;1453;42.708;23.282;2023-03-18T10:42:29;18.10;46.80
2889;DHT22;1453;42.708;23.282;2023-03-18T10:45:32;18.50;45.20
2889;DHT22;1453;42.708;23.282;2023-03-18T10:48:03;18.60;43.60
2889;DHT22;1453;42.708;23.282;2023-03-18T10:50:41;16.00;43.80
2889;DHT22;1453;42.708;23.282;2023-03-18T10:56:07;15.80;47.30
2889;DHT22;1453;42.708;23.282;2023-03-18T10:58:37;16.40;48.50
2889;DHT22;1453;42.708;23.282;2023-03-18T11:01:05;17.40;48.30
2889;DHT22;1453;42.708;23.282;2023-03-18T11:03:36;16.40;47.50
2889;DHT22;1453;42.708;23.282;2023-03-18T11:06:16;15.50;49.10
2889;DHT22;1453;42.708;23.282;2023-03-18T11:08:47;14.40;49.10
2889;DHT22;1453;42.708;23.282;2023-03-18T11:13:50;12.50;50.80
2889;DHT22;1453;42.708;23.282;2023-03-18T11:16:41;12.20;52.20
2889;DHT22;1453;42.708;23.282;2023-03-18T11:22:04;10.70;51.40
2889;DHT22;1453;42.708;23.282;2023-03-18T11:24:45;10.40;52.20
2889;DHT22;1453;42.708;23.282;2023-03-18T11:30:10;10.90;51.70
2889;DHT22;1453;42.708;23.282;2023-03-18T11:32:36;10.90;51.60
2889;DHT22;1453;42.708;23.282;2023-03-18T11:35:04;11.70;50.70
2889;DHT22;1453;42.708;23.282;2023-03-18T11:37:37;12.60;50.30
2889;DHT22;1453;42.708;23.282;2023-03-18T11:42:40;15.80;44.70
2889;DHT22;1453;42.708;23.282;2023-03-18T11:45:44;15.70;43.90
2889;DHT22;1453;42.708;23.282;2023-03-18T11:48:34;15.70;43.80
2889;DHT22;1453;42.708;23.282;2023-03-18T11:57:01;17.00;44.90
2889;DHT22;1453;42.708;23.282;2023-03-18T12:08:44;16.30;43.90
2889;DHT22;1453;42.708;23.282;2023-03-18T12:20:54;18.50;41.50
2889;DHT22;1453;42.708;23.282;2023-03-18T12:43:16;18.60;40.40
2889;DHT22;1453;42.708;23.282;2023-03-18T12:46:00;17.60;39.40
2889;DHT22;1453;42.708;23.282;2023-03-18T12:48:32;17.50;40.60
2889;DHT22;1453;42.708;23.282;2023-03-18T12:51:11;16.90;41.30
2889;DHT22;1453;42.708;23.282;2023-03-18T12:53:50;15.30;40.30
2889;DHT22;1453;42.708;23.282;2023-03-18T12:56:24;15.30;42.00
2889;DHT22;1453;42.708;23.282;2023-03-18T12:58:59;16.40;41.50
2889;DHT22;1453;42.708;23.282;2023-03-18T13:01:56;15.10;40.60
2889;DHT22;1453;42.708;23.282;2023-03-18T13:04:30;15.20;42.80
2889;DHT22;1453;42.708;23.282;2023-03-18T13:07:04;15.10;41.70
2889;DHT22;1453;42.708;23.282;2023-03-18T13:09:51;15.40;41.40
2889;DHT22;1453;42.708;23.282;2023-03-18T13:12:25;16.30;41.80
2889;DHT22;1453;42.708;23.282;2023-03-18T13:17:56;16.00;39.80
2889;DHT22;1453;42.708;23.282;2023-03-18T13:20:32;16.20;40.30
2889;DHT22;1453;42.708;23.282;2023-03-18T13:23:16;15.10;39.80
2889;DHT22;1453;42.708;23.282;2023-03-18T13:41:17;13.00;43.00
2889;DHT22;1453;42.708;23.282;2023-03-18T13:43:59;12.90;43.10
2889;DHT22;1453;42.708;23.282;2023-03-18T13:46:31;13.10;43.00
2889;DHT22;1453;42.708;23.282;2023-03-18T13:49:00;12.90;43.00
2889;DHT22;1453;42.708;23.282;2023-03-18T13:54:02;12.20;43.00
2889;DHT22;1453;42.708;23.282;2023-03-18T13:56:52;11.70;43.80
2889;DHT22;1453;42.708;23.282;2023-03-18T14:04:56;11.20;45.50
2889;DHT22;1453;42.708;23.282;2023-03-18T14:07:24;12.70;44.60
2889;DHT22;1453;42.708;23.282;2023-03-18T14:15:40;16.70;41.50
2889;DHT22;1453;42.708;23.282;2023-03-18T14:18:23;16.20;39.50
2889;DHT22;1453;42.708;23.282;2023-03-18T14:20:57;16.40;40.10
2889;DHT22;1453;42.708;23.282;2023-03-18T14:26:06;17.30;40.00
2889;DHT22;1453;42.708;23.282;2023-03-18T14:31:30;16.90;39.00
2889;DHT22;1453;42.708;23.282;2023-03-18T14:39:37;13.90;40.20
2889;DHT22;1453;42.708;23.282;2023-03-18T14:42:34;13.90;40.40
2889;DHT22;1453;42.708;23.282;2023-03-18T14:48:08;13.50;42.20
2889;DHT22;1453;42.708;23.282;2023-03-18T14:50:39;13.40;41.70
2889;DHT22;1453;42.708;23.282;2023-03-18T14:53:16;13.30;41.40
2889;DHT22;1453;42.708;23.282;2023-03-18T14:55:45;13.80;42.00
2889;DHT22;1453;42.708;23.282;2023-03-18T14:58:29;14.50;41.50
2889;DHT22;1453;42.708;23.282;2023-03-18T15:01:06;15.20;40.80
2889;DHT22;1453;42.708;23.282;2023-03-18T15:03:38;15.10;39.50
2889;DHT22;1453;42.708;23.282;2023-03-18T15:06:07;14.40;40.00
2889;DHT22;1453;42.708;23.282;2023-03-18T15:08:57;14.20;39.70
2889;DHT22;1453;42.708;23.282;2023-03-18T15:11:25;14.10;40.20
2889;DHT22;1453;42.708;23.282;2023-03-18T15:13:54;13.80;40.30
2889;DHT22;1453;42.708;23.282;2023-03-18T15:16:23;12.80;41.20
2889;DHT22;1453;42.708;23.282;2023-03-18T15:18:53;13.50;42.20
2889;DHT22;1453;42.708;23.282;2023-03-18T15:21:26;13.90;41.40
2889;DHT22;1453;42.708;23.282;2023-03-18T15:24:04;14.30;41.10
2889;DHT22;1453;42.708;23.282;2023-03-18T15:26:39;14.50;40.60
2889;DHT22;1453;42.708;23.282;2023-03-18T15:29:31;14.70;40.30
2889;DHT22;1453;42.708;23.282;2023-03-18T15:33:03;14.40;40.90
2889;DHT22;1453;42.708;23.282;2023-03-18T15:35:23;13.00;41.00
2889;DHT22;1453;42.708;23.282;2023-03-18T15:40:48;14.20;41.50
2889;DHT22;1453;42.708;23.282;2023-03-18T15:43:57;13.30;40.30
2889;DHT22;1453;42.708;23.282;2023-03-18T15:46:18;12.50;42.30
2889;DHT22;1453;42.708;23.282;2023-03-18T15:48:55;12.70;43.00
2889;DHT22;1453;42.708;23.282;2023-03-18T15:51:29;12.80;43.10
2889;DHT22;1453;42.708;23.282;2023-03-18T15:54:05;12.80;42.80
2889;DHT22;1453;42.708;23.282;2023-03-18T15:56:46;12.40;42.80
2889;DHT22;1453;42.708;23.282;2023-03-18T15:59:27;12.30;43.20
2889;DHT22;1453;42.708;23.282;2023-03-18T16:01:56;12.10;43.10
2889;DHT22;1453;42.708;23.282;2023-03-18T16:04:24;11.90;43.70
2889;DHT22;1453;42.708;23.282;2023-03-18T16:06:54;12.40;43.60
2889;DHT22;1453;42.708;23.282;2023-03-18T16:09:23;12.00;42.80
2889;DHT22;1453;42.708;23.282;2023-03-18T16:12:02;11.30;43.30
2889;DHT22;1453;42.708;23.282;2023-03-18T16:14:43;11.10;44.90
2889;DHT22;1453;42.708;23.282;2023-03-18T16:17:12;10.70;45.90
2889;DHT22;1453;42.708;23.282;2023-03-18T16:19:40;11.00;45.80
2889;DHT22;1453;42.708;23.282;2023-03-18T16:22:08;10.80;45.90
2889;DHT22;1453;42.708;23.282;2023-03-18T16:24:35;10.20;45.90
2889;DHT22;1453;42.708;23.282;2023-03-18T16:27:02;9.70;47.50
2889;DHT22;1453;42.708;23.282;2023-03-18T16:29:32;9.60;48.20
2889;DHT22;1453;42.708;23.282;2023-03-18T16:32:01;9.50;48.50
2889;DHT22;1453;42.708;23.282;2023-03-18T16:34:27;9.00;48.60
2889;DHT22;1453;42.708;23.282;2023-03-18T16:36:53;8.80;49.40
2889;DHT22;1453;42.708;23.282;2023-03-18T16:39:24;8.70;49.90
2889;DHT22;1453;42.708;23.282;2023-03-18T16:41:58;8.80;50.10
2889;DHT22;1453;42.708;23.282;2023-03-18T16:44:25;8.70;50.20
2889;DHT22;1453;42.708;23.282;2023-03-18T16:46:55;8.60;50.60
2889;DHT22;1453;42.708;23.282;2023-03-18T16:49:24;8.50;50.90
2889;DHT22;1453;42.708;23.282;2023-03-18T16:51:52;8.40;51.20
2889;DHT22;1453;42.708;23.282;2023-03-18T16:54:27;8.30;51.80
2889;DHT22;1453;42.708;23.282;2023-03-18T16:56:56;8.20;51.90
2889;DHT22;1453;42.708;23.282;2023-03-18T16:59:25;8.20;52.30
2889;DHT22;1453;42.708;23.282;2023-03-18T17:01:53;8.20;52.50
2889;DHT22;1453;42.708;23.282;2023-03-18T17:04:35;8.00;52.50
2889;DHT22;1453;42.708;23.282;2023-03-18T17:07:03;7.80;52.70
2889;DHT22;1453;42.708;23.282;2023-03-18T17:09:30;7.80;53.10
2889;DHT22;1453;42.708;23.282;2023-03-18T17:12:02;7.80;53.30
2889;DHT22;1453;42.708;23.282;2023-03-18T17:14:36;7.50;53.50
2889;DHT22;1453;42.708;23.282;2023-03-18T17:17:27;7.60;53.90
2889;DHT22;1453;42.708;23.282;2023-03-18T17:19:55;7.50;53.70
2889;DHT22;1453;42.708;23.282;2023-03-18T17:22:26;7.50;53.90
2889;DHT22;1453;42.708;23.282;2023-03-18T17:24:57;7.60;53.90
2889;DHT22;1453;42.708;23.282;2023-03-18T17:27:33;7.40;54.00
2889;DHT22;1453;42.708;23.282;2023-03-18T17:30:02;7.30;54.50
2889;DHT22;1453;42.708;23.282;2023-03-18T17:32:31;7.30;54.60
2889;DHT22;1453;42.708;23.282;2023-03-18T17:34:58;7.20;55.00
2889;DHT22;1453;42.708;23.282;2023-03-18T17:37:24;7.20;55.10
2889;DHT22;1453;42.708;23.282;2023-03-18T17:39:50;7.20;55.30
2889;DHT22;1453;42.708;23.282;2023-03-18T17:42:28;7.00;56.10
2889;DHT22;1453;42.708;23.282;2023-03-18T17:45:00;7.00;56.00
2889;DHT22;1453;42.708;23.282;2023-03-18T17:47:30;7.00;56.10
2889;DHT22;1453;42.708;23.282;2023-03-18T17:49:57;6.80;56.30
2889;DHT22;1453;42.708;23.282;2023-03-18T17:52:23;6.70;56.90
2889;DHT22;1453;42.708;23.282;2023-03-18T17:54:49;6.60;57.00
2889;DHT22;1453;42.708;23.282;2023-03-18T17:57:16;6.80;57.30
2889;DHT22;1453;42.708;23.282;2023-03-18T17:59:43;6.80;57.10
2889;DHT22;1453;42.708;23.282;2023-03-18T18:02:12;6.90;57.20
2889;DHT22;1453;42.708;23.282;2023-03-18T18:04:45;6.70;57.30
2889;DHT22;1453;42.708;23.282;2023-03-18T18:07:19;6.50;57.80
2889;DHT22;1453;42.708;23.282;2023-03-18T18:09:49;6.60;58.30
2889;DHT22;1453;42.708;23.282;2023-03-18T18:12:20;6.40;58.90
2889;DHT22;1453;42.708;23.282;2023-03-18T18:14:48;6.50;59.10
2889;DHT22;1453;42.708;23.282;2023-03-18T18:17:15;6.60;59.00
2889;DHT22;1453;42.708;23.282;2023-03-18T18:19:42;6.50;59.10
2889;DHT22;1453;42.708;23.282;2023-03-18T18:22:16;6.60;59.40
2889;DHT22;1453;42.708;23.282;2023-03-18T18:24:45;6.40;59.30
2889;DHT22;1453;42.708;23.282;2023-03-18T18:27:13;6.50;59.90
2889;DHT22;1453;42.708;23.282;2023-03-18T18:29:40;6.50;59.80
2889;DHT22;1453;42.708;23.282;2023-03-18T18:32:12;6.50;59.90
2889;DHT22;1453;42.708;23.282;2023-03-18T18:34:40;6.60;60.10